Portada
METAR-TAF:

METAR-TAF

Aeroports :

Maré, Nova Caledònia

latitud: 21-28-53S, longitud: 168-02-15E, altitud: 42 m

METAR: manca

Hora: 05:01 (18:01 UTC)

Pronòstic

L'informe es va fer fa 1 hora i 1 minuts, a les 17:00 UTC
Pronòstic vàlid del 26 a les 18 UTC al 27 a les 18 UTC
Vent 6 kt del Est
Visibilitat 10 km o més
Núvols disperses a una alçada de 1500 ft
Cel ennuvolat a una alçada de 4000 ft
Temporalment
l' 27 a les 00 UTC al 27 a les 12 UTC
Visibilitat: 4000 m
Cel ennuvolat a una alçada de 1200 ft
Núvols disperses a una alçada de 1800 ft, Cumulus congestus.
xàfecs de pluja

TAF: NWWR 261700Z 2618/2718 08006KT 9999 SCT015 BKN040 TEMPO 2700/2712 4000 SHRA BKN012 SCT018TCU

Observacions i pronòstics meteorològics de més de 4000 aeroports (METAR i TAF).

Les estacions disponibles són els punts grocs i vermells al mapa.

Posi el ratolí al punt desitjat per veure el nom de l'estació.

Feu clic per veure les observacions i els pronòstics meteorològics.

Per canviar el mapa: feu clic els botons verds amb una creu de color negre per apropar; al botó verd amb un guió per allunyar la imatge; o en les fletxes verdes per a mapes adjacents.


METAR-TAF: